Time;durP1;ratioP1;P1;durP2;ratioP2;P2;SDS_P1;SDS_P2;PMS_P1;PMS_P2;Temp;Humidity;BMP_temperature;BMP_pressure;BME280_temperature;BME280_humidity;BME280_pressure;Samples;Min_cycle;Max_cycle;Signal;HPM_P1;HPM_P2
2022/12/18 00:01:25;;;;;;;54.70;20.40;;;-2.80;99.90;;;;;;5029856;28;20112;-80
2022/12/18 00:03:52;;;;;;;69.57;22.35;;;-2.10;99.90;;;;;;5029122;28;20053;-80
2022/12/18 00:06:19;;;;;;;88.95;24.58;;;-2.90;99.90;;;;;;5029948;28;20037;-80
2022/12/18 00:08:45;;;;;;;66.82;22.90;;;-0.50;99.90;;;;;;5016872;28;20037;-79
2022/12/18 00:11:13;;;;;;;71.95;20.95;;;-2.70;99.90;;;;;;5033489;28;20049;-79
2022/12/18 00:13:39;;;;;;;75.13;21.80;;;-2.70;99.90;;;;;;5033226;28;20041;-80
2022/12/18 00:16:08;;;;;;;82.60;24.73;;;-1.10;99.90;;;;;;5017158;28;20061;-80
2022/12/18 00:18:34;;;;;;;68.32;20.23;;;-2.80;99.90;;;;;;5033173;28;20301;-80
2022/12/18 00:21:05;;;;;;;67.47;19.00;;;-1.90;99.90;;;;;;5017315;28;20041;-80
2022/12/18 00:23:32;;;;;;;55.60;18.33;;;-2.70;99.90;;;;;;5033742;28;20140;-80
2022/12/18 00:26:02;;;;;;;62.83;21.75;;;-2.80;99.90;;;;;;5017052;28;20037;-80
2022/12/18 00:28:28;;;;;;;55.40;20.63;;;-1.20;99.90;;;;;;5033428;28;20048;-80
2022/12/18 00:31:05;;;;;;;56.55;18.15;;;-1.60;99.90;;;;;;5020278;28;20599;-89
2022/12/18 00:33:31;;;;;;;67.38;19.85;;;-0.90;99.90;;;;;;5037799;28;20046;-89
2022/12/18 00:36:15;;;;;;;68.57;19.75;;;-3.10;99.90;;;;;;5037267;28;20041;-89
2022/12/18 00:38:41;;;;;;;56.58;17.92;;;-3.00;99.90;;;;;;5027743;28;20117;-89
2022/12/18 00:41:09;;;;;;;61.85;19.73;;;-3.10;99.90;;;;;;5037730;28;20128;-89
2022/12/18 00:43:36;;;;;;;66.78;19.27;;;-2.10;99.90;;;;;;5020683;28;20041;-90
2022/12/18 00:46:02;;;;;;;67.30;20.65;;;-0.80;99.90;;;;;;5020932;28;20509;-89
2022/12/18 00:48:28;;;;;;;74.03;21.83;;;-1.40;99.90;;;;;;5020113;28;20109;-89
2022/12/18 00:50:53;;;;;;;66.72;19.98;;;-1.20;99.90;;;;;;5020993;28;20352;-89
2022/12/18 00:53:19;;;;;;;68.32;20.65;;;-1.60;99.90;;;;;;5020584;28;20042;-89
2022/12/18 00:55:46;;;;;;;68.22;21.73;;;-3.50;99.90;;;;;;5036112;28;20041;-89
2022/12/18 00:58:13;;;;;;;52.03;18.30;;;-3.40;99.90;;;;;;5019674;28;20038;-89
2022/12/18 01:00:39;;;;;;;79.57;21.63;;;-3.20;99.90;;;;;;5020339;28;20180;-90
2022/12/18 01:03:05;;;;;;;73.53;21.50;;;-3.40;99.90;;;;;;5036364;28;20516;-89
2022/12/18 01:05:32;;;;;;;69.70;20.15;;;-1.10;99.90;;;;;;5020027;28;20042;-90
2022/12/18 01:07:58;;;;;;;65.95;19.67;;;-3.30;99.90;;;;;;5020358;28;20041;-90
2022/12/18 01:10:24;;;;;;;67.22;18.90;;;-3.10;99.90;;;;;;5003854;28;20120;-89
2022/12/18 01:12:50;;;;;;;75.45;23.02;;;-1.10;99.90;;;;;;5037355;28;20045;-89
2022/12/18 01:15:16;;;;;;;72.82;19.67;;;-3.30;99.90;;;;;;5021427;28;20048;-89
2022/12/18 01:17:43;;;;;;;78.90;21.73;;;-1.10;99.90;;;;;;5022356;28;20520;-89
2022/12/18 01:20:09;;;;;;;;;;;-0.90;99.90;;;;;;5020882;28;20069;-88
2022/12/18 01:22:35;;;;;;;68.90;20.20;;;-3.20;99.90;;;;;;5021377;28;19928;-88
2022/12/18 01:25:01;;;;;;;66.10;19.75;;;-1.10;99.90;;;;;;5020827;28;20034;-89
2022/12/18 01:27:27;;;;;;;75.50;22.05;;;-3.20;99.90;;;;;;5003355;28;20390;-89
2022/12/18 01:29:53;;;;;;;77.65;23.38;;;-1.20;99.90;;;;;;5035721;28;20040;-88
2022/12/18 01:32:19;;;;;;;61.60;19.50;;;-1.90;99.90;;;;;;5019783;28;20517;-88
2022/12/18 01:34:44;;;;;;;75.25;20.15;;;-3.20;99.90;;;;;;5003997;28;20038;-88
2022/12/18 01:37:10;;;;;;;67.50;20.65;;;-1.80;99.90;;;;;;5019456;28;20044;-89
2022/12/18 01:39:36;;;;;;;65.80;19.35;;;-2.20;99.90;;;;;;5003487;28;20052;-90
2022/12/18 01:42:12;;;;;;;56.95;17.80;;;-3.50;99.90;;;;;;5035041;28;20111;-89
2022/12/18 01:44:56;;;;;;;72.30;22.40;;;-2.10;99.90;;;;;;5019146;28;20042;-90
2022/12/18 01:47:49;;;;;;;51.08;17.23;;;-3.40;99.90;;;;;;5031438;28;20045;-89
2022/12/18 01:50:35;;;;;;;63.65;19.20;;;-3.00;99.90;;;;;;5035761;28;20037;-89
2022/12/18 01:53:22;;;;;;;64.10;19.27;;;-3.40;99.90;;;;;;5017225;28;20029;-90
2022/12/18 01:55:57;;;;;;;63.83;19.33;;;-3.80;99.90;;;;;;5016423;28;20041;-88
2022/12/18 01:58:32;;;;;;;57.15;19.65;;;-4.00;99.90;;;;;;5019655;28;20064;-89
2022/12/18 02:00:58;;;;;;;62.30;20.92;;;-4.10;99.90;;;;;;5035492;28;20441;-89
2022/12/18 02:03:24;;;;;;;76.82;21.55;;;;;;;;;;5019459;28;20106;-89
2022/12/18 02:06:10;;;;;;;65.00;21.23;;;-3.80;99.90;;;;;;5020312;28;20033;-89
2022/12/18 02:08:47;;;;;;;64.57;19.25;;;-3.90;99.90;;;;;;5033709;28;20041;-89
2022/12/18 02:11:40;;;;;;;57.00;15.45;;;-4.10;99.90;;;;;;5031414;28;20125;-89
2022/12/18 02:14:26;;;;;;;57.40;19.08;;;-4.00;99.90;;;;;;5035567;28;20037;-89
2022/12/18 02:17:01;;;;;;;69.60;20.08;;;-4.20;99.90;;;;;;5016552;28;20119;-89
2022/12/18 02:19:54;;;;;;;66.85;20.02;;;-4.20;99.90;;;;;;5035679;28;20041;-88
2022/12/18 02:22:35;;;;;;;66.15;20.25;;;-4.10;99.90;;;;;;5034459;28;20489;-89
2022/12/18 02:25:45;;;;;;;73.28;20.77;;;-3.50;99.90;;;;;;5032644;28;20489;-88
2022/12/18 02:28:14;;;;;;;72.22;19.42;;;-4.20;99.90;;;;;;5008856;28;20049;-90
2022/12/18 02:30:42;;;;;;;63.92;19.55;;;-4.20;99.90;;;;;;5034802;28;20087;-89
2022/12/18 02:33:09;;;;;;;67.28;20.02;;;-4.40;99.90;;;;;;5018391;28;20136;-89
2022/12/18 02:35:37;;;;;;;73.07;20.73;;;-2.40;99.90;;;;;;5035115;28;20453;-89
2022/12/18 02:38:04;;;;;;;63.67;20.25;;;-4.70;99.90;;;;;;5018097;28;20508;-88
2022/12/18 02:40:33;;;;;;;75.22;21.05;;;-4.20;99.90;;;;;;5018772;28;20053;-89
2022/12/18 02:43:09;;;;;;;;;;;-3.90;99.90;;;;;;5018038;28;20042;-88
2022/12/18 02:45:35;;;;;;;65.75;21.45;;;-4.40;99.90;;;;;;5017984;28;19916;-89
2022/12/18 02:48:01;;;;;;;71.95;21.80;;;-2.20;99.90;;;;;;5001415;28;20044;-88
2022/12/18 02:50:37;;;;;;;66.68;20.08;;;-4.10;99.90;;;;;;5018666;28;20559;-89
2022/12/18 02:53:25;;;;;;;79.80;20.30;;;-4.60;99.90;;;;;;5034550;28;20045;-89
2022/12/18 02:55:57;;;;;;;67.82;20.85;;;-3.60;99.90;;;;;;5013640;28;20073;-90
2022/12/18 02:58:59;;;;;;;74.30;21.40;;;-4.30;99.90;;;;;;5036046;28;20033;-88
2022/12/18 03:01:38;;;;;;;64.60;19.58;;;-4.30;99.90;;;;;;5034881;28;20493;-88
2022/12/18 03:04:21;;;;;;;73.75;21.50;;;-4.30;99.90;;;;;;5018659;28;20045;-89
2022/12/18 03:06:50;;;;;;;74.97;20.73;;;-4.70;99.90;;;;;;5018483;28;20083;-89
2022/12/18 03:09:21;;;;;;;50.92;18.45;;;-4.60;99.90;;;;;;4997783;28;20037;-89
2022/12/18 03:14:43;;;;;;;68.25;22.27;;;-4.20;99.90;;;;;;5033370;28;20045;-89
2022/12/18 03:17:13;;;;;;;72.45;21.67;;;-4.50;99.90;;;;;;5035001;28;20048;-89
2022/12/18 03:19:41;;;;;;;73.10;22.08;;;-4.70;99.90;;;;;;5019495;28;20038;-88
2022/12/18 03:22:09;;;;;;;76.30;21.92;;;-4.70;99.90;;;;;;5018558;28;20406;-89
2022/12/18 03:24:38;;;;;;;74.63;23.08;;;-3.00;99.90;;;;;;5019127;28;20541;-88
2022/12/18 03:27:10;;;;;;;55.05;17.17;;;-4.80;99.90;;;;;;5030349;28;20041;-89
2022/12/18 03:30:02;;;;;;;77.75;22.33;;;-4.70;99.90;;;;;;5018525;28;20037;-88
2022/12/18 03:32:33;;;;;;;73.03;22.05;;;-4.60;99.90;;;;;;5031261;28;20057;-89
2022/12/18 03:35:02;;;;;;;72.47;22.60;;;-4.70;99.90;;;;;;5018481;28;20072;-89
2022/12/18 03:37:31;;;;;;;68.43;21.98;;;-2.90;99.90;;;;;;5034628;28;20116;-89
2022/12/18 03:39:57;;;;;;;67.22;20.17;;;-4.50;99.90;;;;;;5020283;28;20045;-88
2022/12/18 03:42:31;;;;;;;72.13;22.20;;;-4.60;99.90;;;;;;5017705;28;20072;-89
2022/12/18 03:45:09;;;;;;;72.20;22.58;;;-4.30;99.90;;;;;;5026324;28;20087;-88
2022/12/18 03:47:51;;;;;;;64.57;20.58;;;-4.40;99.90;;;;;;5017370;28;20034;-89
2022/12/18 03:51:01;;;;;;;67.80;21.00;;;-3.60;99.90;;;;;;5035381;28;20041;-88
2022/12/18 03:53:56;;;;;;;60.33;19.20;;;-4.50;99.90;;;;;;5010690;28;20057;-88
2022/12/18 03:56:26;;;;;;;63.17;21.65;;;-4.50;99.90;;;;;;5017117;28;20093;-89
2022/12/18 03:58:53;;;;;;;71.75;22.30;;;-2.30;99.90;;;;;;5036662;28;20041;-88
2022/12/18 04:01:23;;;;;;;62.22;20.65;;;-4.90;99.90;;;;;;5019660;28;20113;-88
2022/12/18 04:03:49;;;;;;;67.53;22.90;;;-2.30;99.90;;;;;;5018916;28;20397;-88
2022/12/18 04:06:16;;;;;;;65.68;20.67;;;-4.80;99.90;;;;;;5035682;28;20036;-88
2022/12/18 04:08:43;;;;;;;53.65;17.60;;;-2.20;99.90;;;;;;5002967;28;20030;-88
2022/12/18 04:11:09;;;;;;;52.78;17.30;;;-4.90;99.90;;;;;;5020602;28;20121;-88
2022/12/18 04:13:36;;;;;;;66.38;21.17;;;-4.80;99.90;;;;;;5052932;28;20092;-87
2022/12/18 04:16:03;;;;;;;60.60;19.30;;;-4.50;99.90;;;;;;5018307;28;20046;-88
2022/12/18 04:18:28;;;;;;;;;;;-4.40;99.90;;;;;;5018546;28;20553;-87
2022/12/18 04:20:54;;;;;;;69.70;21.67;;;-1.60;99.90;;;;;;5018346;28;19963;-88
2022/12/18 04:23:20;;;;;;;64.30;19.83;;;-4.70;99.90;;;;;;5017759;28;20041;-88
2022/12/18 04:25:47;;;;;;;65.47;21.05;;;-4.70;99.90;;;;;;5019210;28;20120;-87
2022/12/18 04:28:13;;;;;;;71.57;21.50;;;-4.50;99.90;;;;;;5034527;28;20157;-87
2022/12/18 04:30:38;;;;;;;64.40;20.00;;;-2.90;99.90;;;;;;5034786;28;20165;-87
2022/12/18 04:33:09;;;;;;;57.97;19.48;;;-4.90;99.90;;;;;;5001890;28;20049;-88
2022/12/18 04:35:35;;;;;;;58.88;19.80;;;-2.40;99.90;;;;;;5018721;28;20038;-87
2022/12/18 04:38:01;;;;;;;68.88;21.23;;;-4.60;99.90;;;;;;5002924;28;20038;-88
2022/12/18 04:40:26;;;;;;;76.28;22.27;;;-4.80;99.90;;;;;;5001959;28;20103;-89
2022/12/18 04:42:52;;;;;;;62.58;19.20;;;-4.90;99.90;;;;;;5051586;28;20521;-89
2022/12/18 04:45:18;;;;;;;65.57;21.15;;;-5.00;99.90;;;;;;5034712;28;20052;-88
2022/12/18 04:47:43;;;;;;;72.30;23.23;;;-5.10;99.90;;;;;;5018573;28;20072;-88
2022/12/18 04:50:09;;;;;;;65.65;20.85;;;-2.70;99.90;;;;;;5003450;28;20629;-88
2022/12/18 04:52:35;;;;;;;56.90;20.08;;;-5.10;99.90;;;;;;5019277;28;20037;-88
2022/12/18 04:55:01;;;;;;;72.20;21.63;;;-4.90;99.90;;;;;;5025434;28;20037;-88
2022/12/18 04:57:27;;;;;;;48.63;17.90;;;-4.80;99.90;;;;;;5039459;28;20120;-88
2022/12/18 04:59:52;;;;;;;45.88;14.68;;;-4.80;99.90;;;;;;5046670;28;20045;-87
2022/12/18 05:02:18;;;;;;;50.85;18.52;;;-4.80;99.90;;;;;;5046260;28;20041;-90
2022/12/18 05:04:43;;;;;;;60.70;19.33;;;-2.70;99.90;;;;;;5026800;28;20154;-89
2022/12/18 05:07:09;;;;;;;62.58;20.13;;;-2.60;99.90;;;;;;5042578;28;20069;-87
2022/12/18 05:09:35;;;;;;;65.07;20.27;;;-5.10;99.90;;;;;;5024374;28;20041;-88
2022/12/18 05:12:00;;;;;;;60.38;20.20;;;-5.20;99.90;;;;;;5038596;28;20037;-89
2022/12/18 05:14:27;;;;;;;63.35;19.02;;;-4.90;99.90;;;;;;5022171;28;20184;-88
2022/12/18 05:16:53;;;;;;;62.95;19.35;;;-4.80;99.90;;;;;;5023291;28;20045;-87
2022/12/18 05:19:18;;;;;;;59.17;19.92;;;-5.10;99.90;;;;;;5042865;28;20122;-88
2022/12/18 05:21:44;;;;;;;59.30;19.13;;;-4.80;99.90;;;;;;5024729;28;20053;-89
2022/12/18 05:24:10;;;;;;;63.05;20.83;;;-5.20;99.90;;;;;;5038823;28;20030;-88
2022/12/18 05:26:36;;;;;;;60.92;18.33;;;-3.10;99.90;;;;;;5039305;28;20120;-88
2022/12/18 05:29:01;;;;;;;52.35;18.67;;;-3.40;99.90;;;;;;4999899;28;20125;-88
2022/12/18 05:31:27;;;;;;;61.72;19.33;;;-3.40;99.90;;;;;;5020472;28;20080;-88
2022/12/18 05:33:53;;;;;;;54.85;18.98;;;-2.80;99.90;;;;;;5026567;28;20498;-88
2022/12/18 05:36:19;;;;;;;;;;;-5.10;99.90;;;;;;5031302;28;20052;-87
2022/12/18 05:38:45;;;;;;;55.75;19.60;;;-2.80;99.90;;;;;;5022845;28;20284;-88
2022/12/18 05:41:11;;;;;;;59.80;18.25;;;-5.20;99.90;;;;;;5023041;28;20053;-88
2022/12/18 05:43:38;;;;;;;60.40;18.83;;;-4.50;99.90;;;;;;5038583;28;20046;-88
2022/12/18 05:46:10;;;;;;;53.85;17.52;;;-5.10;99.90;;;;;;5022303;28;20049;-88
2022/12/18 05:48:36;;;;;;;54.28;17.88;;;-4.00;99.90;;;;;;5022171;28;20068;-90
2022/12/18 05:51:14;;;;;;;60.53;19.33;;;-5.50;99.90;;;;;;5039030;28;20037;-88
2022/12/18 05:53:42;;;;;;;59.03;17.27;;;-3.30;99.90;;;;;;5023001;28;20065;-89
2022/12/18 05:56:14;;;;;;;57.17;18.80;;;-2.90;99.90;;;;;;5023760;28;20045;-89
2022/12/18 05:58:40;;;;;;;56.75;18.45;;;-4.90;99.90;;;;;;5023968;28;20049;-90
2022/12/18 06:01:26;;;;;;;57.95;18.33;;;-5.30;99.90;;;;;;5025081;28;20045;-89
2022/12/18 06:03:52;;;;;;;54.50;18.17;;;-5.50;99.90;;;;;;5041317;28;20129;-89
2022/12/18 06:06:20;;;;;;;56.65;18.15;;;-5.40;99.90;;;;;;5039918;28;20073;-89
2022/12/18 06:08:46;;;;;;;48.03;16.60;;;-5.10;99.90;;;;;;5036678;28;20056;-88
2022/12/18 06:11:13;;;;;;;54.30;19.08;;;-3.70;99.90;;;;;;5037415;28;20079;-88
2022/12/18 06:13:39;;;;;;;53.22;17.90;;;-3.50;99.90;;;;;;5015361;28;20041;-89
2022/12/18 06:16:05;;;;;;;44.47;15.57;;;-5.30;99.90;;;;;;5006266;28;20029;-89
2022/12/18 06:18:32;;;;;;;51.80;17.00;;;-5.10;99.90;;;;;;5021903;28;20041;-89
2022/12/18 06:20:59;;;;;;;50.83;17.13;;;-5.10;99.90;;;;;;5037583;28;20121;-89
2022/12/18 06:23:25;;;;;;;49.08;15.68;;;-5.50;99.90;;;;;;5021025;28;20045;-89
2022/12/18 06:25:55;;;;;;;47.63;17.13;;;-5.50;99.90;;;;;;5021205;28;20081;-89
2022/12/18 06:28:20;;;;;;;48.60;17.45;;;-5.30;99.90;;;;;;5020812;28;20074;-89
2022/12/18 06:30:48;;;;;;;45.25;16.92;;;-5.40;99.90;;;;;;5036484;28;20033;-89
2022/12/18 06:33:14;;;;;;;50.75;16.63;;;-3.70;99.90;;;;;;5039080;28;20053;-89
2022/12/18 06:35:40;;;;;;;34.45;14.30;;;-3.10;99.90;;;;;;5021632;28;20134;-89
2022/12/18 06:38:06;;;;;;;44.50;16.15;;;-5.20;99.90;;;;;;5020941;28;20038;-89
2022/12/18 06:40:32;;;;;;;49.00;16.15;;;-5.50;99.90;;;;;;5021109;28;20045;-89
2022/12/18 06:42:58;;;;;;;46.50;16.77;;;-5.30;99.90;;;;;;5004326;28;20691;-90
2022/12/18 06:45:24;;;;;;;40.90;14.93;;;-4.30;99.90;;;;;;5020860;28;20041;-89
2022/12/18 06:47:50;;;;;;;45.38;14.82;;;-5.60;99.90;;;;;;4995398;28;20056;-89
2022/12/18 06:50:16;;;;;;;47.83;16.92;;;-5.00;99.90;;;;;;5038205;28;20032;-89
2022/12/18 06:52:43;;;;;;;42.53;15.27;;;-5.40;99.90;;;;;;5036946;28;20045;-89
2022/12/18 06:55:10;;;;;;;41.35;16.15;;;-5.70;99.90;;;;;;5036986;28;20110;-89
2022/12/18 06:57:36;;;;;;;49.08;16.35;;;-5.20;99.90;;;;;;5021851;28;20489;-89
2022/12/18 07:00:03;;;;;;;;;;;-5.50;99.90;;;;;;5000236;28;20034;-80
2022/12/18 07:02:29;;;;;;;38.53;14.93;;;-5.40;99.90;;;;;;5014264;28;20941;-80
2022/12/18 07:04:55;;;;;;;44.28;16.40;;;-3.20;99.90;;;;;;4998070;28;20033;-80
2022/12/18 07:07:20;;;;;;;42.58;15.45;;;-4.90;99.90;;;;;;5013515;28;20033;-80
2022/12/18 07:09:46;;;;;;;42.22;15.43;;;-5.50;99.90;;;;;;5014184;28;20474;-80
2022/12/18 07:12:12;;;;;;;39.47;15.63;;;-4.90;99.90;;;;;;5029991;28;20045;-80
2022/12/18 07:14:38;;;;;;;42.40;14.25;;;-5.50;99.90;;;;;;4997298;28;20038;-80
2022/12/18 07:17:03;;;;;;;41.40;14.95;;;-5.50;99.90;;;;;;5013136;28;20041;-80
2022/12/18 07:19:29;;;;;;;21.73;10.38;;;-5.50;99.90;;;;;;5013877;28;20579;-80
2022/12/18 07:21:55;;;;;;;34.10;14.52;;;-5.40;99.90;;;;;;5013894;28;20046;-81
2022/12/18 07:24:21;;;;;;;44.20;14.48;;;-5.00;99.90;;;;;;4997364;28;20030;-81
2022/12/18 07:26:47;;;;;;;37.47;15.07;;;-5.50;99.90;;;;;;5013991;28;20044;-80
2022/12/18 07:29:13;;;;;;;;;;;-5.40;99.90;;;;;;5014003;28;20037;-80
2022/12/18 07:31:38;;;;;;;40.00;14.27;;;-4.10;99.90;;;;;;5013870;28;19951;-80
2022/12/18 07:34:04;;;;;;;33.35;14.18;;;-5.40;99.90;;;;;;5030133;28;20045;-81
2022/12/18 07:36:30;;;;;;;34.45;13.75;;;-5.40;99.90;;;;;;5013817;28;20053;-80
2022/12/18 07:38:56;;;;;;;35.40;14.02;;;-5.40;99.90;;;;;;4997494;28;20067;-80
2022/12/18 07:41:21;;;;;;;31.40;12.98;;;-5.60;99.90;;;;;;5013366;28;20061;-81
2022/12/18 07:43:47;;;;;;;33.65;12.88;;;-5.40;99.90;;;;;;5020498;28;20517;-90
2022/12/18 07:46:14;;;;;;;32.35;12.82;;;-3.00;99.90;;;;;;5020070;28;20045;-90
2022/12/18 07:48:43;;;;;;;37.47;13.63;;;-5.60;99.90;;;;;;5021084;28;20099;-90
2022/12/18 07:51:09;;;;;;;35.78;14.65;;;-5.40;99.90;;;;;;5021395;28;20080;-90
2022/12/18 07:53:35;;;;;;;42.63;15.75;;;-5.30;99.90;;;;;;5008574;28;20038;-91
2022/12/18 07:56:07;;;;;;;35.58;13.85;;;-3.00;99.90;;;;;;5040352;28;20127;-90
2022/12/18 07:58:33;;;;;;;29.73;13.90;;;-5.10;99.90;;;;;;5037736;28;20045;-91
2022/12/18 08:01:11;;;;;;;41.72;14.70;;;-5.10;99.90;;;;;;5023744;28;20100;-90
2022/12/18 08:03:41;;;;;;;34.15;13.45;;;-3.50;99.90;;;;;;5021025;28;20049;-90
2022/12/18 08:06:09;;;;;;;36.95;14.52;;;-4.50;99.90;;;;;;5030916;28;20095;-90
2022/12/18 08:08:35;;;;;;;32.97;14.45;;;-3.30;99.90;;;;;;5040068;28;20052;-90
2022/12/18 08:11:01;;;;;;;;;;;-4.90;99.90;;;;;;5024530;28;20029;-89
2022/12/18 08:13:30;;;;;;;35.00;13.48;;;-4.00;99.90;;;;;;5030757;28;19928;-90
2022/12/18 08:16:04;;;;;;;32.70;13.88;;;-3.10;99.90;;;;;;5032610;28;20128;-88
2022/12/18 08:18:31;;;;;;;28.67;12.93;;;-4.90;99.90;;;;;;5025364;28;20045;-90
2022/12/18 08:20:57;;;;;;;28.42;12.98;;;-5.00;99.90;;;;;;5021371;28;20404;-89
2022/12/18 08:23:22;;;;;;;29.77;12.57;;;-2.90;99.90;;;;;;5020344;28;20091;-90
2022/12/18 08:25:49;;;;;;;29.60;12.70;;;-4.50;99.90;;;;;;5020023;28;20056;-90
2022/12/18 08:28:16;;;;;;;25.92;12.60;;;-4.70;99.90;;;;;;5022405;28;20037;-90
2022/12/18 08:30:42;;;;;;;31.35;12.43;;;-3.30;99.90;;;;;;5023435;28;20038;-90
2022/12/18 08:33:08;;;;;;;26.35;10.48;;;-2.30;99.90;;;;;;5008620;28;20037;-90
2022/12/18 08:35:37;;;;;;;28.98;11.90;;;-6.30;99.90;;;;;;5028435;28;20048;-90
2022/12/18 08:38:03;;;;;;;32.28;13.57;;;-4.20;99.90;;;;;;5027075;28;20045;-89
2022/12/18 08:40:29;;;;;;;22.48;10.30;;;-4.40;99.90;;;;;;5021058;28;20046;-89
2022/12/18 08:45:39;;;;;;;25.40;11.88;;;-3.60;99.90;;;;;;5037112;28;20115;-89
2022/12/18 08:48:05;;;;;;;28.33;11.95;;;-3.30;99.90;;;;;;5020082;28;20704;-86
2022/12/18 08:50:32;;;;;;;29.58;12.75;;;-4.30;99.90;;;;;;5059194;28;20068;-85
2022/12/18 08:53:02;;;;;;;28.67;12.40;;;-3.30;99.90;;;;;;5016837;28;20111;-84
2022/12/18 08:55:28;;;;;;;30.30;12.82;;;-3.50;99.90;;;;;;5030347;28;20548;-86
2022/12/18 08:57:53;;;;;;;28.83;12.32;;;-4.10;99.90;;;;;;5015820;28;20037;-86
2022/12/18 09:00:19;;;;;;;27.95;12.55;;;-3.90;99.90;;;;;;5033784;28;20486;-85
2022/12/18 09:02:45;;;;;;;27.83;12.18;;;-3.70;99.90;;;;;;5001417;28;20064;-86
2022/12/18 09:05:11;;;;;;;26.77;12.13;;;-2.40;99.90;;;;;;5001819;28;20205;-86
2022/12/18 09:07:37;;;;;;;28.90;12.77;;;-3.20;99.90;;;;;;5015568;28;20033;-87
2022/12/18 09:10:03;;;;;;;27.67;12.35;;;-3.40;99.90;;;;;;5034118;28;20087;-85
2022/12/18 09:12:29;;;;;;;23.65;11.90;;;-3.30;99.90;;;;;;5050444;28;20177;-86
2022/12/18 09:14:56;;;;;;;24.95;11.80;;;-3.20;99.90;;;;;;5018138;28;20049;-87
2022/12/18 09:17:22;;;;;;;28.85;11.40;;;-3.00;99.90;;;;;;5034148;28;20048;-86
2022/12/18 09:19:47;;;;;;;27.10;11.63;;;-2.80;99.90;;;;;;5033784;28;20041;-87
2022/12/18 09:22:13;;;;;;;27.90;12.10;;;-2.80;99.90;;;;;;5033941;28;20037;-87
2022/12/18 09:24:39;;;;;;;29.30;12.13;;;-2.70;99.90;;;;;;5051169;28;20033;-89
2022/12/18 09:27:04;;;;;;;25.27;12.02;;;-2.60;99.90;;;;;;5018784;28;20033;-87
2022/12/18 09:29:30;;;;;;;26.17;11.68;;;-1.50;99.90;;;;;;5018604;28;20420;-86
2022/12/18 09:31:56;;;;;;;26.92;11.82;;;-0.60;99.90;;;;;;5032124;28;20120;-85
2022/12/18 09:34:22;;;;;;;23.38;11.80;;;-2.40;99.90;;;;;;5014373;28;20039;-83
2022/12/18 09:36:48;;;;;;;23.73;11.20;;;-0.80;99.90;;;;;;5030222;28;20040;-86
2022/12/18 09:39:14;;;;;;;27.30;12.02;;;-0.80;99.90;;;;;;5018456;28;20072;-84
2022/12/18 09:41:42;;;;;;;24.17;11.27;;;-2.40;99.90;;;;;;5031804;28;20049;-84
2022/12/18 09:44:18;;;;;;;21.48;10.60;;;-2.10;99.90;;;;;;5032516;28;20042;-83
2022/12/18 09:46:48;;;;;;;22.05;11.18;;;-2.00;99.90;;;;;;5019855;28;20064;-84
2022/12/18 09:49:18;;;;;;;24.38;11.80;;;-0.50;99.90;;;;;;5010925;28;20037;-84
2022/12/18 09:51:50;;;;;;;25.48;11.43;;;-1.50;99.90;;;;;;5015906;28;20053;-83
2022/12/18 09:54:45;;;;;;;24.67;12.15;;;-1.70;99.90;;;;;;5030543;28;20030;-84
2022/12/18 09:57:15;;;;;;;23.90;11.57;;;-1.80;99.90;;;;;;5028732;28;20041;-83
2022/12/18 09:59:43;;;;;;;22.67;11.20;;;-1.90;99.90;;;;;;5034206;28;20393;-84
2022/12/18 10:02:20;;;;;;;22.40;12.27;;;-0.80;99.90;;;;;;5036223;28;20134;-82
2022/12/18 10:04:50;;;;;;;;;;;-2.20;99.90;;;;;;5053431;28;20053;-84
2022/12/18 10:07:49;;;;;;;21.25;11.52;;;-1.40;99.90;;;;;;5036166;28;19916;-84
2022/12/18 10:10:30;;;;;;;22.80;10.85;;;-2.30;99.90;;;;;;5000847;28;20072;-85
2022/12/18 10:13:22;;;;;;;22.85;11.18;;;-2.40;99.90;;;;;;5036572;28;20045;-85
2022/12/18 10:16:26;;;;;;;20.05;10.45;;;-2.30;99.90;;;;;;5031023;28;20087;-84
2022/12/18 10:19:08;;;;;;;22.80;9.38;;;-2.30;99.90;;;;;;5028682;28;20041;-83
2022/12/18 10:21:42;;;;;;;18.77;10.35;;;-2.00;99.90;;;;;;5034189;28;20053;-83
2022/12/18 10:24:33;;;;;;;18.50;10.20;;;-1.50;99.90;;;;;;5017039;28;20041;-82
2022/12/18 10:27:10;;;;;;;19.90;10.38;;;-0.80;99.90;;;;;;5033115;28;20533;-82
2022/12/18 10:29:37;;;;;;;16.73;8.93;;;-0.10;99.90;;;;;;5023516;28;20037;-81
2022/12/18 10:32:02;;;;;;;20.15;8.43;;;0.20;99.90;;;;;;5031311;28;20102;-81
2022/12/18 10:34:28;;;;;;;17.45;9.10;;;0.20;99.90;;;;;;5031343;28;20049;-80
2022/12/18 10:36:54;;;;;;;15.53;8.57;;;0.00;99.90;;;;;;5031286;28;20041;-81
2022/12/18 10:39:27;;;;;;;15.87;8.93;;;-0.30;99.90;;;;;;5027322;28;20312;-82
2022/12/18 10:42:11;;;;;;;14.90;8.20;;;-0.50;99.90;;;;;;5014106;28;20128;-81
2022/12/18 10:44:37;;;;;;;16.38;9.00;;;-0.70;99.90;;;;;;5025865;28;20045;-81
2022/12/18 10:47:06;;;;;;;14.35;8.50;;;-1.00;99.90;;;;;;5025912;28;20048;-82
2022/12/18 10:49:34;;;;;;;12.88;7.70;;;-1.20;99.90;;;;;;5026900;28;20037;-82
2022/12/18 10:52:18;;;;;;;15.40;8.45;;;-1.40;99.90;;;;;;5040618;28;20026;-82
2022/12/18 10:55:03;;;;;;;16.08;8.10;;;-1.50;99.90;;;;;;5035124;28;20060;-82
2022/12/18 10:57:36;;;;;;;15.45;8.32;;;-1.50;99.90;;;;;;5042212;28;20105;-82
2022/12/18 11:00:27;;;;;;;14.65;7.65;;;-1.70;99.90;;;;;;5038059;28;20076;-83
2022/12/18 11:02:54;;;;;;;12.57;6.75;;;-1.80;99.90;;;;;;5032877;28;20037;-81
2022/12/18 11:05:23;;;;;;;;;;;-1.80;99.90;;;;;;5032410;28;20529;-81
2022/12/18 11:07:50;;;;;;;12.35;6.88;;;-1.90;99.90;;;;;;5028997;28;19918;-81
2022/12/18 11:10:18;;;;;;;13.57;6.68;;;-0.90;99.90;;;;;;5027576;28;20112;-81
2022/12/18 11:12:44;;;;;;;13.50;7.13;;;-1.90;99.90;;;;;;5027016;28;20037;-81
2022/12/18 11:15:27;;;;;;;14.18;6.70;;;-1.90;99.90;;;;;;5027986;28;20054;-81
2022/12/18 11:17:53;;;;;;;11.20;6.88;;;-1.80;99.90;;;;;;5028010;28;20045;-84
2022/12/18 11:20:41;;;;;;;13.48;6.78;;;-1.90;99.90;;;;;;5033502;28;20050;-86
2022/12/18 11:23:13;;;;;;;10.90;6.10;;;-1.90;99.90;;;;;;5028098;28;20518;-85
2022/12/18 11:25:39;;;;;;;9.55;5.03;;;0.00;99.90;;;;;;5003669;28;20049;-85
2022/12/18 11:28:37;;;;;;;11.60;6.22;;;-1.90;99.90;;;;;;5020222;28;20037;-86
2022/12/18 11:31:24;;;;;;;11.50;6.55;;;-1.80;99.90;;;;;;5018857;28;20041;-86
2022/12/18 11:34:10;;;;;;;10.95;6.15;;;-1.80;99.90;;;;;;5035389;28;20493;-86
2022/12/18 11:36:45;;;;;;;11.73;6.00;;;-1.70;99.90;;;;;;5037135;28;20037;-87
2022/12/18 11:39:27;;;;;;;13.07;6.10;;;-1.70;99.90;;;;;;5026786;28;20057;-85
2022/12/18 11:42:11;;;;;;;11.35;5.32;;;-0.50;99.90;;;;;;5042572;28;20053;-84
2022/12/18 11:44:46;;;;;;;11.13;5.60;;;-1.60;99.90;;;;;;5017979;28;20056;-82
2022/12/18 11:47:41;;;;;;;9.77;5.20;;;-1.60;99.90;;;;;;5021138;28;20095;-86
2022/12/18 11:50:16;;;;;;;10.70;5.78;;;-1.60;99.90;;;;;;5033634;28;20116;-86
2022/12/18 11:52:42;;;;;;;11.40;5.45;;;-0.40;99.90;;;;;;5037807;28;20039;-84
2022/12/18 11:55:20;;;;;;;10.00;5.75;;;-1.50;99.90;;;;;;5020455;28;20041;-86
2022/12/18 11:58:05;;;;;;;11.07;5.53;;;-1.50;99.90;;;;;;5017621;28;20051;-85
2022/12/18 12:00:31;;;;;;;12.32;5.32;;;-1.50;99.90;;;;;;5009438;28;20453;-85
2022/12/18 12:03:08;;;;;;;7.63;4.85;;;-1.50;99.90;;;;;;5018353;28;20041;-87
2022/12/18 12:05:43;;;;;;;;;;;-1.40;99.90;;;;;;5019604;28;20049;-87
2022/12/18 12:08:45;;;;;;;10.40;5.47;;;-1.40;99.90;;;;;;5034906;28;20360;-87
2022/12/18 12:11:35;;;;;;;12.35;5.43;;;-1.40;99.90;;;;;;5040315;28;20056;-85
2022/12/18 12:14:15;;;;;;;9.25;5.05;;;-1.40;99.90;;;;;;5013275;28;20041;-84
2022/12/18 12:17:04;;;;;;;8.38;5.05;;;-1.40;99.90;;;;;;5039137;28;20041;-86
2022/12/18 12:19:41;;;;;;;9.45;5.18;;;-1.30;99.90;;;;;;5034887;28;20079;-85
2022/12/18 12:22:16;;;;;;;10.15;4.78;;;-1.30;99.90;;;;;;5039367;28;20067;-83
2022/12/18 12:24:52;;;;;;;8.63;4.80;;;-1.30;99.90;;;;;;5033679;28;20061;-83
2022/12/18 12:27:30;;;;;;;11.15;5.00;;;-1.20;99.90;;;;;;5034075;28;20092;-82
2022/12/18 12:30:07;;;;;;;7.68;4.18;;;-1.20;99.90;;;;;;5036316;28;20103;-87
2022/12/18 12:32:42;;;;;;;;;;;-1.20;99.90;;;;;;5036622;28;20098;-82
2022/12/18 12:35:46;;;;;;;9.90;4.43;;;-1.20;99.90;;;;;;5034389;28;19917;-83
2022/12/18 12:38:43;;;;;;;9.13;4.70;;;-1.20;99.90;;;;;;5025153;28;20049;-83
2022/12/18 12:44:07;;;;;;;9.05;5.35;;;-1.10;99.90;;;;;;5022211;28;20060;-81
2022/12/18 12:46:39;;;;;;;9.77;5.53;;;-0.60;99.90;;;;;;5032403;28;20069;-80
2022/12/18 12:49:16;;;;;;;12.55;5.22;;;-0.50;99.90;;;;;;5037789;28;20133;-82
2022/12/18 12:51:49;;;;;;;11.15;5.07;;;0.20;99.90;;;;;;5025097;28;20033;-85
2022/12/18 12:54:23;;;;;;;9.55;4.65;;;-1.00;99.90;;;;;;5019079;28;20123;-83
2022/12/18 12:57:15;;;;;;;7.45;4.07;;;-1.00;99.90;;;;;;5017394;28;20379;-81
2022/12/18 12:59:51;;;;;;;10.68;5.25;;;-1.00;99.90;;;;;;5028041;28;20049;-84
2022/12/18 13:02:46;;;;;;;10.60;5.10;;;-0.90;99.90;;;;;;5034762;28;20126;-84